sensor_id;sensor_type;location;lat;lon;timestamp;pressure;altitude;pressure_sealevel;temperature
74450;BMP180;62881;53.724;0.040;2022-08-19T00:02:59;101000;;;19.10809
74450;BMP180;62881;53.724;0.040;2022-08-19T00:07:59;101000;;;19.10238
74450;BMP180;62881;53.724;0.040;2022-08-19T00:13:00;101000;;;19.04751
74450;BMP180;62881;53.724;0.040;2022-08-19T00:18:01;101000;;;19.05068
74450;BMP180;62881;53.724;0.040;2022-08-19T00:23:03;101000;;;19.05639
74450;BMP180;62881;53.724;0.040;2022-08-19T00:28:04;101000;;;18.9327
74450;BMP180;62881;53.724;0.040;2022-08-19T00:33:05;101000;;;18.93429
74450;BMP180;62881;53.724;0.040;2022-08-19T00:38:06;101000;;;18.86102
74450;BMP180;62881;53.724;0.040;2022-08-19T00:43:08;101000;;;18.8144
74450;BMP180;62881;53.724;0.040;2022-08-19T00:48:09;101000;;;18.81027
74450;BMP180;62881;53.724;0.040;2022-08-19T00:53:10;101000;;;18.75794
74450;BMP180;62881;53.724;0.040;2022-08-19T00:58:12;101100;;;18.67611
74450;BMP180;62881;53.724;0.040;2022-08-19T01:03:15;101100;;;18.63615
74450;BMP180;62881;53.724;0.040;2022-08-19T01:08:17;101100;;;18.52324
74450;BMP180;62881;53.724;0.040;2022-08-19T01:13:19;101100;;;18.43539
74450;BMP180;62881;53.724;0.040;2022-08-19T01:18:20;101100;;;18.35292
74450;BMP180;62881;53.724;0.040;2022-08-19T01:23:22;101100;;;18.33358
74450;BMP180;62881;53.724;0.040;2022-08-19T01:28:24;101100;;;18.23589
74450;BMP180;62881;53.724;0.040;2022-08-19T01:33:26;101100;;;18.21274
74450;BMP180;62881;53.724;0.040;2022-08-19T01:38:27;101100;;;18.18007
74450;BMP180;62881;53.724;0.040;2022-08-19T01:43:28;101100;;;18.09888
74450;BMP180;62881;53.724;0.040;2022-08-19T01:48:32;101100;;;18.13345
74450;BMP180;62881;53.724;0.040;2022-08-19T01:53:33;101100;;;18.13313
74450;BMP180;62881;53.724;0.040;2022-08-19T01:58:36;101100;;;18.11949
74450;BMP180;62881;53.724;0.040;2022-08-19T02:03:38;101100;;;18.11347
74450;BMP180;62881;53.724;0.040;2022-08-19T02:08:40;101100;;;18.07573
74450;BMP180;62881;53.724;0.040;2022-08-19T02:13:40;101100;;;18.06018
74450;BMP180;62881;53.724;0.040;2022-08-19T02:18:41;101200;;;17.89463
74450;BMP180;62881;53.724;0.040;2022-08-19T02:23:42;101200;;;17.89494
74450;BMP180;62881;53.724;0.040;2022-08-19T02:28:43;101200;;;17.96757
74450;BMP180;62881;53.724;0.040;2022-08-19T02:33:44;101200;;;17.98248
74450;BMP180;62881;53.724;0.040;2022-08-19T02:38:45;101200;;;17.8756
74450;BMP180;62881;53.724;0.040;2022-08-19T02:43:46;101200;;;17.78552
74450;BMP180;62881;53.724;0.040;2022-08-19T02:48:48;101200;;;17.69228
74450;BMP180;62881;53.724;0.040;2022-08-19T02:53:48;101200;;;17.63931
74450;BMP180;62881;53.724;0.040;2022-08-19T02:58:49;101200;;;17.58064
74450;BMP180;62881;53.724;0.040;2022-08-19T03:03:50;101200;;;17.50579
74450;BMP180;62881;53.724;0.040;2022-08-19T03:08:51;102000;;;17.36402
74450;BMP180;62881;53.724;0.040;2022-08-19T03:13:53;102200;;;17.24159
74450;BMP180;62881;53.724;0.040;2022-08-19T03:18:55;101900;;;17.1049
74450;BMP180;62881;53.724;0.040;2022-08-19T03:23:56;102000;;;17.05003
74450;BMP180;62881;53.724;0.040;2022-08-19T03:29:00;102000;;;17.03576
74450;BMP180;62881;53.724;0.040;2022-08-19T03:34:02;101900;;;17.01483
74450;BMP180;62881;53.724;0.040;2022-08-19T03:39:03;101800;;;16.98565
74450;BMP180;62881;53.724;0.040;2022-08-19T03:44:04;101800;;;16.94569
74450;BMP180;62881;53.724;0.040;2022-08-19T03:49:05;101800;;;16.96154
74450;BMP180;62881;53.724;0.040;2022-08-19T03:54:07;101800;;;16.99263
74450;BMP180;62881;53.724;0.040;2022-08-19T03:59:09;101800;;;17.03766
74450;BMP180;62881;53.724;0.040;2022-08-19T04:04:10;101900;;;17.08365
74450;BMP180;62881;53.724;0.040;2022-08-19T04:09:11;101800;;;16.95964
74450;BMP180;62881;53.724;0.040;2022-08-19T04:14:29;101700;;;16.8277
74450;BMP180;62881;53.724;0.040;2022-08-19T04:19:30;101700;;;16.75888
74450;BMP180;62881;53.724;0.040;2022-08-19T04:24:31;101600;;;16.67769
74450;BMP180;62881;53.724;0.040;2022-08-19T04:29:32;101600;;;16.66659
74450;BMP180;62881;53.724;0.040;2022-08-19T04:34:33;101500;;;16.70179
74450;BMP180;62881;53.724;0.040;2022-08-19T04:39:34;101500;;;16.67357
74450;BMP180;62881;53.724;0.040;2022-08-19T04:44:35;101500;;;16.69418
74450;BMP180;62881;53.724;0.040;2022-08-19T04:49:36;101700;;;16.73382
74450;BMP180;62881;53.724;0.040;2022-08-19T04:54:37;101500;;;16.76491
74450;BMP180;62881;53.724;0.040;2022-08-19T04:59:38;101500;;;16.7852
74450;BMP180;62881;53.724;0.040;2022-08-19T05:04:39;101500;;;16.79186
74450;BMP180;62881;53.724;0.040;2022-08-19T05:09:41;101500;;;16.75095
74450;BMP180;62881;53.724;0.040;2022-08-19T05:14:42;101500;;;16.76015
74450;BMP180;62881;53.724;0.040;2022-08-19T05:19:42;101400;;;16.74619
74450;BMP180;62881;53.724;0.040;2022-08-19T05:24:44;101400;;;16.70718
74450;BMP180;62881;53.724;0.040;2022-08-19T05:29:45;101300;;;16.7167
74450;BMP180;62881;53.724;0.040;2022-08-19T05:34:45;101300;;;16.77664
74450;BMP180;62881;53.724;0.040;2022-08-19T05:39:46;101300;;;16.76554
74450;BMP180;62881;53.724;0.040;2022-08-19T05:44:47;101300;;;16.80836
74450;BMP180;62881;53.724;0.040;2022-08-19T05:49:48;101300;;;16.83246
74450;BMP180;62881;53.724;0.040;2022-08-19T05:54:49;101300;;;16.8166
74450;BMP180;62881;53.724;0.040;2022-08-19T05:59:50;101200;;;16.82643
74450;BMP180;62881;53.724;0.040;2022-08-19T06:04:51;101300;;;16.81914
74450;BMP180;62881;53.724;0.040;2022-08-19T06:09:52;101200;;;16.82739
74450;BMP180;62881;53.724;0.040;2022-08-19T06:14:53;101200;;;16.84737
74450;BMP180;62881;53.724;0.040;2022-08-19T06:19:54;101200;;;16.8442
74450;BMP180;62881;53.724;0.040;2022-08-19T06:24:55;101200;;;16.81407
74450;BMP180;62881;53.724;0.040;2022-08-19T06:29:56;101200;;;16.84451
74450;BMP180;62881;53.724;0.040;2022-08-19T06:34:57;101200;;;16.83246
74450;BMP180;62881;53.724;0.040;2022-08-19T06:39:58;101200;;;16.80201
74450;BMP180;62881;53.724;0.040;2022-08-19T06:44:09;101200;;;16.83627
74450;BMP180;62881;53.724;0.040;2022-08-19T06:49:11;101300;;;16.86735
74450;BMP180;62881;53.724;0.040;2022-08-19T06:54:12;101200;;;16.83944
74450;BMP180;62881;53.724;0.040;2022-08-19T06:59:14;101300;;;16.84673
74450;BMP180;62881;53.724;0.040;2022-08-19T07:04:16;101200;;;16.9016
74450;BMP180;62881;53.724;0.040;2022-08-19T07:09:18;101300;;;16.91143
74450;BMP180;62881;53.724;0.040;2022-08-19T07:14:21;101200;;;17.02117
74450;BMP180;62881;53.724;0.040;2022-08-19T07:19:23;101200;;;17.14898
74450;BMP180;62881;53.724;0.040;2022-08-19T07:24:25;101100;;;17.04749
74450;BMP180;62881;53.724;0.040;2022-08-19T07:29:26;101200;;;16.9847
74450;BMP180;62881;53.724;0.040;2022-08-19T07:34:28;101100;;;17.24381
74450;BMP180;62881;53.724;0.040;2022-08-19T07:39:30;101100;;;17.32501
74450;BMP180;62881;53.724;0.040;2022-08-19T07:44:31;101200;;;17.55495
74450;BMP180;62881;53.724;0.040;2022-08-19T07:49:32;101200;;;17.54131
74450;BMP180;62881;53.724;0.040;2022-08-19T07:54:34;101200;;;17.76649
74450;BMP180;62881;53.724;0.040;2022-08-19T07:59:36;101100;;;17.79345
74450;BMP180;62881;53.724;0.040;2022-08-19T08:04:37;101100;;;18.12806
74450;BMP180;62881;53.724;0.040;2022-08-19T08:09:39;101100;;;17.95901
74450;BMP180;62881;53.724;0.040;2022-08-19T08:14:41;101100;;;18.03164
74450;BMP180;62881;53.724;0.040;2022-08-19T08:19:43;101200;;;18.04972
74450;BMP180;62881;53.724;0.040;2022-08-19T08:24:44;101200;;;18.17087
74450;BMP180;62881;53.724;0.040;2022-08-19T08:29:45;101200;;;18.17975
74450;BMP180;62881;53.724;0.040;2022-08-19T08:34:46;101200;;;18.58287
74450;BMP180;62881;53.724;0.040;2022-08-19T08:39:47;101300;;;18.68214
74450;BMP180;62881;53.724;0.040;2022-08-19T08:44:51;101300;;;18.97583
74450;BMP180;62881;53.724;0.040;2022-08-19T08:49:54;101300;;;18.84167
74450;BMP180;62881;53.724;0.040;2022-08-19T08:54:58;101300;;;18.99011
74450;BMP180;62881;53.724;0.040;2022-08-19T09:00:00;101300;;;19.3152
74450;BMP180;62881;53.724;0.040;2022-08-19T09:05:03;101300;;;19.34723
74450;BMP180;62881;53.724;0.040;2022-08-19T09:10:13;101300;;;19.78619
74450;BMP180;62881;53.724;0.040;2022-08-19T09:15:17;101300;;;19.718
74450;BMP180;62881;53.724;0.040;2022-08-19T09:20:22;101300;;;19.33772
74450;BMP180;62881;53.724;0.040;2022-08-19T09:25:23;101300;;;19.23242
74450;BMP180;62881;53.724;0.040;2022-08-19T09:30:25;101300;;;19.44429
74450;BMP180;62881;53.724;0.040;2022-08-19T09:35:28;101300;;;19.56925
74450;BMP180;62881;53.724;0.040;2022-08-19T09:40:30;101300;;;19.83377
74450;BMP180;62881;53.724;0.040;2022-08-19T09:45:32;101300;;;19.43699
74450;BMP180;62881;53.724;0.040;2022-08-19T09:50:33;101300;;;19.54483
74450;BMP180;62881;53.724;0.040;2022-08-19T09:55:35;101300;;;19.5867
74450;BMP180;62881;53.724;0.040;2022-08-19T10:00:42;101300;;;20.38691
74450;BMP180;62881;53.724;0.040;2022-08-19T10:05:43;101300;;;19.72117
74450;BMP180;62881;53.724;0.040;2022-08-19T10:10:45;101300;;;20.36471
74450;BMP180;62881;53.724;0.040;2022-08-19T10:15:46;101300;;;19.9822
74450;BMP180;62881;53.724;0.040;2022-08-19T10:20:48;101300;;;19.79254
74450;BMP180;62881;53.724;0.040;2022-08-19T10:25:49;101300;;;20.06181
74450;BMP180;62881;53.724;0.040;2022-08-19T10:30:50;101300;;;20.07482
74450;BMP180;62881;53.724;0.040;2022-08-19T10:35:58;101300;;;20.20961
74450;BMP180;62881;53.724;0.040;2022-08-19T10:41:07;101300;;;20.06625
74450;BMP180;62881;53.724;0.040;2022-08-19T10:46:14;101300;;;20.2648
74450;BMP180;62881;53.724;0.040;2022-08-19T10:51:15;101300;;;19.71578
74450;BMP180;62881;53.724;0.040;2022-08-19T10:56:16;101300;;;20.59656
74450;BMP180;62881;53.724;0.040;2022-08-19T11:01:17;101300;;;19.80649
74450;BMP180;62881;53.724;0.040;2022-08-19T11:06:18;101300;;;20.25782
74450;BMP180;62881;53.724;0.040;2022-08-19T11:11:19;101300;;;20.13793
74450;BMP180;62881;53.724;0.040;2022-08-19T11:16:21;101300;;;20.07164
74450;BMP180;62881;53.724;0.040;2022-08-19T11:21:23;101300;;;20.96258
74450;BMP180;62881;53.724;0.040;2022-08-19T11:26:25;101300;;;20.37327
74450;BMP180;62881;53.724;0.040;2022-08-19T11:31:26;101300;;;20.35583
74450;BMP180;62881;53.724;0.040;2022-08-19T11:36:28;101300;;;20.06784
74450;BMP180;62881;53.724;0.040;2022-08-19T11:41:29;101300;;;20.34124
74450;BMP180;62881;53.724;0.040;2022-08-19T11:46:30;101300;;;20.18234
74450;BMP180;62881;53.724;0.040;2022-08-19T11:51:31;101300;;;20.76847
74450;BMP180;62881;53.724;0.040;2022-08-19T11:56:32;101300;;;20.80684
74450;BMP180;62881;53.724;0.040;2022-08-19T12:01:33;101300;;;20.47096
74450;BMP180;62881;53.724;0.040;2022-08-19T12:06:37;101300;;;20.50141
74450;BMP180;62881;53.724;0.040;2022-08-19T12:11:39;101300;;;20.82143
74450;BMP180;62881;53.724;0.040;2022-08-19T12:16:40;101300;;;20.95814
74450;BMP180;62881;53.724;0.040;2022-08-19T12:21:41;101300;;;21.30893
74450;BMP180;62881;53.724;0.040;2022-08-19T12:26:42;101300;;;21.07168
74450;BMP180;62881;53.724;0.040;2022-08-19T12:31:43;101300;;;20.80209
74450;BMP180;62881;53.724;0.040;2022-08-19T12:36:44;101300;;;20.64889
74450;BMP180;62881;53.724;0.040;2022-08-19T12:41:45;101300;;;21.04853
74450;BMP180;62881;53.724;0.040;2022-08-19T12:46:46;101300;;;21.05392
74450;BMP180;62881;53.724;0.040;2022-08-19T12:51:47;101300;;;21.34699
74450;BMP180;62881;53.724;0.040;2022-08-19T12:56:48;101300;;;20.87377
74450;BMP180;62881;53.724;0.040;2022-08-19T13:01:49;101300;;;20.76561
74450;BMP180;62881;53.724;0.040;2022-08-19T13:06:50;101300;;;20.6029
74450;BMP180;62881;53.724;0.040;2022-08-19T13:11:51;101300;;;20.74151
74450;BMP180;62881;53.724;0.040;2022-08-19T13:16:52;101300;;;20.92388
74450;BMP180;62881;53.724;0.040;2022-08-19T13:21:53;101300;;;21.01237
74450;BMP180;62881;53.724;0.040;2022-08-19T13:26:54;101300;;;21.49892
74450;BMP180;62881;53.724;0.040;2022-08-19T13:31:55;101300;;;21.7812
74450;BMP180;62881;53.724;0.040;2022-08-19T13:36:56;101300;;;21.68637
74450;BMP180;62881;53.724;0.040;2022-08-19T13:41:57;101300;;;21.6648
74450;BMP180;62881;53.724;0.040;2022-08-19T13:47:00;101300;;;21.43167
74450;BMP180;62881;53.724;0.040;2022-08-19T13:52:01;101300;;;21.47227
74450;BMP180;62881;53.724;0.040;2022-08-19T13:57:02;101300;;;20.90168
74450;BMP180;62881;53.724;0.040;2022-08-19T14:02:03;101300;;;21.32098
74450;BMP180;62881;53.724;0.040;2022-08-19T14:07:04;101300;;;21.6778
74450;BMP180;62881;53.724;0.040;2022-08-19T14:12:05;101300;;;21.29148
74450;BMP180;62881;53.724;0.040;2022-08-19T14:18:10;101300;;;21.37744
74450;BMP180;62881;53.724;0.040;2022-08-19T14:23:11;101300;;;22.08188
74450;BMP180;62881;53.724;0.040;2022-08-19T14:28:12;101300;;;21.50589
74450;BMP180;62881;53.724;0.040;2022-08-19T14:33:13;101300;;;21.41169
74450;BMP180;62881;53.724;0.040;2022-08-19T14:38:15;101300;;;21.68319
74450;BMP180;62881;53.724;0.040;2022-08-19T14:43:17;101300;;;22.14341
74450;BMP180;62881;53.724;0.040;2022-08-19T14:48:18;101300;;;21.90363
74450;BMP180;62881;53.724;0.040;2022-08-19T14:53:19;101300;;;21.78628
74450;BMP180;62881;53.724;0.040;2022-08-19T14:58:21;101300;;;21.20648
74450;BMP180;62881;53.724;0.040;2022-08-19T15:03:22;101300;;;21.29117
74450;BMP180;62881;53.724;0.040;2022-08-19T15:13:19;101300;;;21.78025
74450;BMP180;62881;53.724;0.040;2022-08-19T15:19:17;101300;;;21.78025
74450;BMP180;62881;53.724;0.040;2022-08-19T15:24:28;101300;;;21.5281
74450;BMP180;62881;53.724;0.040;2022-08-19T15:29:30;101300;;;21.66036
74450;BMP180;62881;53.724;0.040;2022-08-19T15:34:34;101300;;;21.69937
74450;BMP180;62881;53.724;0.040;2022-08-19T15:39:35;101300;;;21.50906
74450;BMP180;62881;53.724;0.040;2022-08-19T15:44:35;101300;;;21.19094
74450;BMP180;62881;53.724;0.040;2022-08-19T15:49:36;101300;;;21.29846
74450;BMP180;62881;53.724;0.040;2022-08-19T15:54:39;101300;;;21.53444
74450;BMP180;62881;53.724;0.040;2022-08-19T15:59:40;101300;;;21.76788
74450;BMP180;62881;53.724;0.040;2022-08-19T16:04:41;101300;;;21.90046
74450;BMP180;62881;53.724;0.040;2022-08-19T16:09:42;101300;;;21.85923
74450;BMP180;62881;53.724;0.040;2022-08-19T16:14:45;101300;;;21.37236
74450;BMP180;62881;53.724;0.040;2022-08-19T16:19:49;101300;;;21.75297
74450;BMP180;62881;53.724;0.040;2022-08-19T16:24:54;101300;;;22.1044
74450;BMP180;62881;53.724;0.040;2022-08-19T16:29:56;101300;;;21.83449
74450;BMP180;62881;53.724;0.040;2022-08-19T16:35:46;101300;;;21.68034
74450;BMP180;62881;53.724;0.040;2022-08-19T16:40:51;101300;;;21.831
74450;BMP180;62881;53.724;0.040;2022-08-19T16:45:53;101300;;;21.37331
74450;BMP180;62881;53.724;0.040;2022-08-19T16:52:37;101400;;;21.29561
74450;BMP180;62881;53.724;0.040;2022-08-19T17:30:48;101400;;;21.52143
74450;BMP180;62881;53.724;0.040;2022-08-19T17:59:49;101400;;;20.35773
74450;BMP180;62881;53.724;0.040;2022-08-19T19:12:25;101400;;;20.85061
74450;BMP180;62881;53.724;0.040;2022-08-19T19:21:43;101500;;;18.76746
74450;BMP180;62881;53.724;0.040;2022-08-19T19:32:54;101500;;;18.51817
74450;BMP180;62881;53.724;0.040;2022-08-19T19:42:19;101500;;;18.32279
74450;BMP180;62881;53.724;0.040;2022-08-19T19:51:11;101500;;;18.14011
74450;BMP180;62881;53.724;0.040;2022-08-19T20:06:17;101500;;;18.06558
74450;BMP180;62881;53.724;0.040;2022-08-19T20:16:16;101500;;;18.20449
74450;BMP180;62881;53.724;0.040;2022-08-19T20:24:34;101500;;;18.22194
74450;BMP180;62881;53.724;0.040;2022-08-19T20:33:00;101500;;;18.04528
74450;BMP180;62881;53.724;0.040;2022-08-19T20:42:11;101500;;;17.75032
74450;BMP180;62881;53.724;0.040;2022-08-19T20:48:40;101500;;;17.48644
74450;BMP180;62881;53.724;0.040;2022-08-19T20:59:28;101500;;;17.32057
74450;BMP180;62881;53.724;0.040;2022-08-19T21:07:33;101500;;;17.16294
74450;BMP180;62881;53.724;0.040;2022-08-19T21:15:57;101500;;;16.70369
74450;BMP180;62881;53.724;0.040;2022-08-19T21:22:46;101500;;;16.67832
74450;BMP180;62881;53.724;0.040;2022-08-19T21:31:35;101500;;;16.13123
74450;BMP180;62881;53.724;0.040;2022-08-19T21:42:22;101500;;;16.665
74450;BMP180;62881;53.724;0.040;2022-08-19T21:50:22;101500;;;16.94315
74450;BMP180;62881;53.724;0.040;2022-08-19T22:00:19;101500;;;16.89335
74450;BMP180;62881;53.724;0.040;2022-08-19T22:09:05;101500;;;16.48169
74450;BMP180;62881;53.724;0.040;2022-08-19T22:15:20;101500;;;16.45473
74450;BMP180;62881;53.724;0.040;2022-08-19T22:23:48;101500;;;16.16263
74450;BMP180;62881;53.724;0.040;2022-08-19T22:43:34;101500;;;15.97836
74450;BMP180;62881;53.724;0.040;2022-08-19T22:51:00;101500;;;16.05194
74450;BMP180;62881;53.724;0.040;2022-08-19T23:01:33;101500;;;15.67929
74450;BMP180;62881;53.724;0.040;2022-08-19T23:09:14;101500;;;15.73415
74450;BMP180;62881;53.724;0.040;2022-08-19T23:14:15;101500;;;15.45506
74450;BMP180;62881;53.724;0.040;2022-08-19T23:19:16;101500;;;15.30124
74450;BMP180;62881;53.724;0.040;2022-08-19T23:24:17;101500;;;15.12966
74450;BMP180;62881;53.724;0.040;2022-08-19T23:29:18;101500;;;15.04847
74450;BMP180;62881;53.724;0.040;2022-08-19T23:34:19;101500;;;14.90353
74450;BMP180;62881;53.724;0.040;2022-08-19T23:39:20;101500;;;14.85469
74450;BMP180;62881;53.724;0.040;2022-08-19T23:44:21;101500;;;14.77762
74450;BMP180;62881;53.724;0.040;2022-08-19T23:49:22;101500;;;14.6939
74450;BMP180;62881;53.724;0.040;2022-08-19T23:54:24;101500;;;14.59241
74450;BMP180;62881;53.724;0.040;2022-08-19T23:59:25;101500;;;14.52549
